Terminal Aerodrome Forecast
Issued by NWS

Current Version | Previous Version | Graphics & Text | Print | Product List | Glossary On
Versions: 1 2 3 4 5 6 7 8 9 10 11 12 13 14 15 16
000
FTUS41 KPBZ 180530
TAFMGW
TAF
KMGW 180530Z 1806/1906 00000KT P6SM OVC200 WS020/22035KT
     FM181200 18005KT P6SM -RA OVC050 WS020/22040KT
     FM181400 19008KT 5SM -RA BR OVC035 WS020/22040KT
     FM181800 21010G20KT P6SM -SHRA OVC040
     FM190200 21012G22KT 3SM SHRA OVC035
     FM190500 27015G25KT 5SM -SHRA OVC015=

USA.gov is the U.S. government's official web portal to all federal, state and local government web resources and services.